sensor_id;sensor_type;location;lat;lon;timestamp;temperature;humidity
23721;DHT22;42950;52.134;5.578;2024-02-26T00:01:40;5.70;99.90
23721;DHT22;42950;52.134;5.578;2024-02-26T00:04:05;5.70;99.90
23721;DHT22;42950;52.134;5.578;2024-02-26T00:06:31;5.70;99.90
23721;DHT22;42950;52.134;5.578;2024-02-26T00:08:57;5.70;99.90
23721;DHT22;42950;52.134;5.578;2024-02-26T00:11:22;5.60;99.90
23721;DHT22;42950;52.134;5.578;2024-02-26T00:13:48;5.60;99.90
23721;DHT22;42950;52.134;5.578;2024-02-26T00:16:13;5.60;99.90
23721;DHT22;42950;52.134;5.578;2024-02-26T00:18:39;5.60;99.90
23721;DHT22;42950;52.134;5.578;2024-02-26T00:21:05;5.50;99.90
23721;DHT22;42950;52.134;5.578;2024-02-26T00:23:30;5.60;99.90
23721;DHT22;42950;52.134;5.578;2024-02-26T00:25:56;5.50;99.90
23721;DHT22;42950;52.134;5.578;2024-02-26T00:28:22;5.50;99.90
23721;DHT22;42950;52.134;5.578;2024-02-26T00:30:47;5.50;99.90
23721;DHT22;42950;52.134;5.578;2024-02-26T00:33:16;5.50;99.90
23721;DHT22;42950;52.134;5.578;2024-02-26T00:35:41;5.50;99.90
23721;DHT22;42950;52.134;5.578;2024-02-26T00:38:07;5.50;99.90
23721;DHT22;42950;52.134;5.578;2024-02-26T00:40:33;5.40;99.90
23721;DHT22;42950;52.134;5.578;2024-02-26T00:42:58;5.40;99.90
23721;DHT22;42950;52.134;5.578;2024-02-26T00:45:24;5.40;99.90
23721;DHT22;42950;52.134;5.578;2024-02-26T00:47:49;5.40;99.90
23721;DHT22;42950;52.134;5.578;2024-02-26T00:50:15;5.40;99.90
23721;DHT22;42950;52.134;5.578;2024-02-26T00:52:41;5.40;99.90
23721;DHT22;42950;52.134;5.578;2024-02-26T00:55:07;5.30;99.90
23721;DHT22;42950;52.134;5.578;2024-02-26T00:57:32;5.30;99.90
23721;DHT22;42950;52.134;5.578;2024-02-26T00:59:58;5.30;99.90
23721;DHT22;42950;52.134;5.578;2024-02-26T01:02:24;5.30;99.90
23721;DHT22;42950;52.134;5.578;2024-02-26T01:04:50;5.30;99.90
23721;DHT22;42950;52.134;5.578;2024-02-26T01:07:16;5.30;99.90
23721;DHT22;42950;52.134;5.578;2024-02-26T01:09:42;5.30;99.90
23721;DHT22;42950;52.134;5.578;2024-02-26T01:12:07;5.30;99.90
23721;DHT22;42950;52.134;5.578;2024-02-26T01:14:33;5.20;99.90
23721;DHT22;42950;52.134;5.578;2024-02-26T01:16:59;5.20;99.90
23721;DHT22;42950;52.134;5.578;2024-02-26T01:19:25;5.30;99.90
23721;DHT22;42950;52.134;5.578;2024-02-26T01:21:50;5.30;99.90
23721;DHT22;42950;52.134;5.578;2024-02-26T01:24:16;5.20;99.90
23721;DHT22;42950;52.134;5.578;2024-02-26T01:26:42;5.20;99.90
23721;DHT22;42950;52.134;5.578;2024-02-26T01:29:08;5.20;99.90
23721;DHT22;42950;52.134;5.578;2024-02-26T01:31:34;5.20;99.90
23721;DHT22;42950;52.134;5.578;2024-02-26T01:34:00;5.20;99.90
23721;DHT22;42950;52.134;5.578;2024-02-26T01:36:25;5.20;99.90
23721;DHT22;42950;52.134;5.578;2024-02-26T01:38:51;5.30;99.90
23721;DHT22;42950;52.134;5.578;2024-02-26T01:41:17;5.30;99.90
23721;DHT22;42950;52.134;5.578;2024-02-26T01:43:42;5.30;99.90
23721;DHT22;42950;52.134;5.578;2024-02-26T01:46:13;5.30;99.90
23721;DHT22;42950;52.134;5.578;2024-02-26T01:48:41;5.30;99.90
23721;DHT22;42950;52.134;5.578;2024-02-26T01:51:07;5.40;99.90
23721;DHT22;42950;52.134;5.578;2024-02-26T01:53:33;5.30;99.90
23721;DHT22;42950;52.134;5.578;2024-02-26T01:55:59;5.30;99.90
23721;DHT22;42950;52.134;5.578;2024-02-26T01:58:25;5.30;99.90
23721;DHT22;42950;52.134;5.578;2024-02-26T02:00:51;5.30;99.90
23721;DHT22;42950;52.134;5.578;2024-02-26T02:03:16;5.30;99.90
23721;DHT22;42950;52.134;5.578;2024-02-26T02:05:42;5.30;99.90
23721;DHT22;42950;52.134;5.578;2024-02-26T02:08:10;5.40;99.90
23721;DHT22;42950;52.134;5.578;2024-02-26T02:10:37;5.40;99.90
23721;DHT22;42950;52.134;5.578;2024-02-26T02:13:03;5.30;99.90
23721;DHT22;42950;52.134;5.578;2024-02-26T02:15:29;5.40;99.90
23721;DHT22;42950;52.134;5.578;2024-02-26T02:17:54;5.40;99.90
23721;DHT22;42950;52.134;5.578;2024-02-26T02:20:33;5.40;99.90
23721;DHT22;42950;52.134;5.578;2024-02-26T02:22:59;5.40;99.90
23721;DHT22;42950;52.134;5.578;2024-02-26T02:25:25;5.40;99.90
23721;DHT22;42950;52.134;5.578;2024-02-26T02:27:55;5.40;99.90
23721;DHT22;42950;52.134;5.578;2024-02-26T02:30:25;5.40;99.90
23721;DHT22;42950;52.134;5.578;2024-02-26T02:32:52;5.50;99.90
23721;DHT22;42950;52.134;5.578;2024-02-26T02:35:18;5.40;99.90
23721;DHT22;42950;52.134;5.578;2024-02-26T02:37:43;5.50;99.90
23721;DHT22;42950;52.134;5.578;2024-02-26T02:40:09;5.50;99.90
23721;DHT22;42950;52.134;5.578;2024-02-26T02:42:35;5.40;99.90
23721;DHT22;42950;52.134;5.578;2024-02-26T02:45:00;5.50;99.90
23721;DHT22;42950;52.134;5.578;2024-02-26T02:47:26;5.50;99.90
23721;DHT22;42950;52.134;5.578;2024-02-26T02:49:51;5.40;99.90
23721;DHT22;42950;52.134;5.578;2024-02-26T02:52:17;5.50;99.90
23721;DHT22;42950;52.134;5.578;2024-02-26T02:54:43;5.50;99.90
23721;DHT22;42950;52.134;5.578;2024-02-26T02:57:08;5.50;99.90
23721;DHT22;42950;52.134;5.578;2024-02-26T02:59:35;5.50;99.90
23721;DHT22;42950;52.134;5.578;2024-02-26T03:02:01;5.50;99.90
23721;DHT22;42950;52.134;5.578;2024-02-26T03:04:26;5.50;99.90
23721;DHT22;42950;52.134;5.578;2024-02-26T03:06:52;5.50;99.90
23721;DHT22;42950;52.134;5.578;2024-02-26T03:09:17;5.50;99.90
23721;DHT22;42950;52.134;5.578;2024-02-26T03:11:43;5.50;99.90
23721;DHT22;42950;52.134;5.578;2024-02-26T03:14:08;5.50;99.90
23721;DHT22;42950;52.134;5.578;2024-02-26T03:16:35;5.50;99.90
23721;DHT22;42950;52.134;5.578;2024-02-26T03:19:00;5.50;99.90
23721;DHT22;42950;52.134;5.578;2024-02-26T03:21:27;5.50;99.90
23721;DHT22;42950;52.134;5.578;2024-02-26T03:23:53;5.50;99.90
23721;DHT22;42950;52.134;5.578;2024-02-26T03:26:18;5.40;99.90
23721;DHT22;42950;52.134;5.578;2024-02-26T03:28:44;5.40;99.90
23721;DHT22;42950;52.134;5.578;2024-02-26T03:31:10;5.40;99.90
23721;DHT22;42950;52.134;5.578;2024-02-26T03:33:36;5.40;99.90
23721;DHT22;42950;52.134;5.578;2024-02-26T03:36:02;5.40;99.90
23721;DHT22;42950;52.134;5.578;2024-02-26T03:38:29;5.40;99.90
23721;DHT22;42950;52.134;5.578;2024-02-26T03:40:54;5.40;99.90
23721;DHT22;42950;52.134;5.578;2024-02-26T03:43:20;5.40;99.90
23721;DHT22;42950;52.134;5.578;2024-02-26T03:45:45;5.40;99.90
23721;DHT22;42950;52.134;5.578;2024-02-26T03:48:11;5.40;99.90
23721;DHT22;42950;52.134;5.578;2024-02-26T03:50:37;5.40;99.90
23721;DHT22;42950;52.134;5.578;2024-02-26T03:53:02;5.40;99.90
23721;DHT22;42950;52.134;5.578;2024-02-26T03:55:28;5.40;99.90
23721;DHT22;42950;52.134;5.578;2024-02-26T03:57:54;5.30;99.90
23721;DHT22;42950;52.134;5.578;2024-02-26T04:00:20;5.40;99.90
23721;DHT22;42950;52.134;5.578;2024-02-26T04:02:49;5.40;99.90
23721;DHT22;42950;52.134;5.578;2024-02-26T04:05:14;5.30;99.90
23721;DHT22;42950;52.134;5.578;2024-02-26T04:07:40;5.40;99.90
23721;DHT22;42950;52.134;5.578;2024-02-26T04:10:13;5.40;99.90
23721;DHT22;42950;52.134;5.578;2024-02-26T04:12:39;5.40;99.90
23721;DHT22;42950;52.134;5.578;2024-02-26T04:15:07;5.40;99.90
23721;DHT22;42950;52.134;5.578;2024-02-26T04:17:33;5.40;99.90
23721;DHT22;42950;52.134;5.578;2024-02-26T04:19:59;5.40;99.90
23721;DHT22;42950;52.134;5.578;2024-02-26T04:22:24;5.40;99.90
23721;DHT22;42950;52.134;5.578;2024-02-26T04:24:50;5.40;99.90
23721;DHT22;42950;52.134;5.578;2024-02-26T04:27:15;5.40;99.90
23721;DHT22;42950;52.134;5.578;2024-02-26T04:29:41;5.40;99.90
23721;DHT22;42950;52.134;5.578;2024-02-26T04:32:06;5.40;99.90
23721;DHT22;42950;52.134;5.578;2024-02-26T04:34:32;5.40;99.90
23721;DHT22;42950;52.134;5.578;2024-02-26T04:36:58;5.40;99.90
23721;DHT22;42950;52.134;5.578;2024-02-26T04:39:24;5.40;99.90
23721;DHT22;42950;52.134;5.578;2024-02-26T04:41:49;5.40;99.90
23721;DHT22;42950;52.134;5.578;2024-02-26T04:44:15;5.40;99.90
23721;DHT22;42950;52.134;5.578;2024-02-26T04:46:40;5.40;99.90
23721;DHT22;42950;52.134;5.578;2024-02-26T04:49:06;5.40;99.90
23721;DHT22;42950;52.134;5.578;2024-02-26T04:51:31;5.50;99.90
23721;DHT22;42950;52.134;5.578;2024-02-26T04:53:57;5.40;99.90
23721;DHT22;42950;52.134;5.578;2024-02-26T04:56:23;5.40;99.90
23721;DHT22;42950;52.134;5.578;2024-02-26T04:58:48;5.40;99.90
23721;DHT22;42950;52.134;5.578;2024-02-26T05:01:15;5.40;99.90
23721;DHT22;42950;52.134;5.578;2024-02-26T05:03:42;5.50;99.90
23721;DHT22;42950;52.134;5.578;2024-02-26T05:06:08;5.40;99.90
23721;DHT22;42950;52.134;5.578;2024-02-26T05:08:34;5.40;99.90
23721;DHT22;42950;52.134;5.578;2024-02-26T05:11:02;5.40;99.90
23721;DHT22;42950;52.134;5.578;2024-02-26T05:13:28;5.40;99.90
23721;DHT22;42950;52.134;5.578;2024-02-26T05:15:54;5.50;99.90
23721;DHT22;42950;52.134;5.578;2024-02-26T05:18:19;5.40;99.90
23721;DHT22;42950;52.134;5.578;2024-02-26T05:20:45;5.40;99.90
23721;DHT22;42950;52.134;5.578;2024-02-26T05:23:10;5.50;99.90
23721;DHT22;42950;52.134;5.578;2024-02-26T05:25:36;5.40;99.90
23721;DHT22;42950;52.134;5.578;2024-02-26T05:28:02;5.40;99.90
23721;DHT22;42950;52.134;5.578;2024-02-26T05:30:27;5.40;99.90
23721;DHT22;42950;52.134;5.578;2024-02-26T05:32:53;5.40;99.90
23721;DHT22;42950;52.134;5.578;2024-02-26T05:35:19;5.40;99.90
23721;DHT22;42950;52.134;5.578;2024-02-26T05:37:45;5.40;99.90
23721;DHT22;42950;52.134;5.578;2024-02-26T05:40:11;5.40;99.90
23721;DHT22;42950;52.134;5.578;2024-02-26T05:42:37;5.40;99.90
23721;DHT22;42950;52.134;5.578;2024-02-26T05:45:03;5.40;99.90
23721;DHT22;42950;52.134;5.578;2024-02-26T05:47:34;5.50;99.90
23721;DHT22;42950;52.134;5.578;2024-02-26T05:50:00;5.40;99.90
23721;DHT22;42950;52.134;5.578;2024-02-26T05:52:26;5.40;99.90
23721;DHT22;42950;52.134;5.578;2024-02-26T05:54:53;5.40;99.90
23721;DHT22;42950;52.134;5.578;2024-02-26T05:57:19;5.40;99.90
23721;DHT22;42950;52.134;5.578;2024-02-26T05:59:44;5.40;99.90
23721;DHT22;42950;52.134;5.578;2024-02-26T06:02:10;5.40;99.90
23721;DHT22;42950;52.134;5.578;2024-02-26T06:04:36;5.40;99.90
23721;DHT22;42950;52.134;5.578;2024-02-26T06:07:02;5.40;99.90
23721;DHT22;42950;52.134;5.578;2024-02-26T06:09:27;5.40;99.90
23721;DHT22;42950;52.134;5.578;2024-02-26T06:11:53;5.50;99.90
23721;DHT22;42950;52.134;5.578;2024-02-26T06:14:19;5.50;99.90
23721;DHT22;42950;52.134;5.578;2024-02-26T06:16:46;5.40;99.90
23721;DHT22;42950;52.134;5.578;2024-02-26T06:19:11;5.40;99.90
23721;DHT22;42950;52.134;5.578;2024-02-26T06:21:37;5.40;99.90
23721;DHT22;42950;52.134;5.578;2024-02-26T06:24:03;5.40;99.90
23721;DHT22;42950;52.134;5.578;2024-02-26T06:26:28;5.50;99.90
23721;DHT22;42950;52.134;5.578;2024-02-26T06:28:55;5.50;99.90
23721;DHT22;42950;52.134;5.578;2024-02-26T06:31:21;5.50;99.90
23721;DHT22;42950;52.134;5.578;2024-02-26T06:33:48;5.50;99.90
23721;DHT22;42950;52.134;5.578;2024-02-26T06:36:15;5.50;99.90
23721;DHT22;42950;52.134;5.578;2024-02-26T06:38:41;5.50;99.90
23721;DHT22;42950;52.134;5.578;2024-02-26T06:41:06;5.50;99.90
23721;DHT22;42950;52.134;5.578;2024-02-26T06:43:32;5.40;99.90
23721;DHT22;42950;52.134;5.578;2024-02-26T06:45:57;5.50;99.90
23721;DHT22;42950;52.134;5.578;2024-02-26T06:48:24;5.50;99.90
23721;DHT22;42950;52.134;5.578;2024-02-26T06:50:50;5.40;99.90
23721;DHT22;42950;52.134;5.578;2024-02-26T06:53:15;5.50;99.90
23721;DHT22;42950;52.134;5.578;2024-02-26T06:55:42;5.40;99.90
23721;DHT22;42950;52.134;5.578;2024-02-26T06:58:08;5.50;99.90
23721;DHT22;42950;52.134;5.578;2024-02-26T07:00:34;5.50;99.90
23721;DHT22;42950;52.134;5.578;2024-02-26T07:02:59;5.50;99.90
23721;DHT22;42950;52.134;5.578;2024-02-26T07:05:25;5.60;99.90
23721;DHT22;42950;52.134;5.578;2024-02-26T07:07:50;5.60;99.90
23721;DHT22;42950;52.134;5.578;2024-02-26T07:10:16;5.60;99.90
23721;DHT22;42950;52.134;5.578;2024-02-26T07:12:41;5.60;99.90
23721;DHT22;42950;52.134;5.578;2024-02-26T07:15:08;5.60;99.90
23721;DHT22;42950;52.134;5.578;2024-02-26T07:17:34;5.60;99.90
23721;DHT22;42950;52.134;5.578;2024-02-26T07:20:00;5.60;99.90
23721;DHT22;42950;52.134;5.578;2024-02-26T07:22:25;5.60;99.90
23721;DHT22;42950;52.134;5.578;2024-02-26T07:24:51;5.60;99.90
23721;DHT22;42950;52.134;5.578;2024-02-26T07:27:18;5.60;99.90
23721;DHT22;42950;52.134;5.578;2024-02-26T07:29:44;5.60;99.90
23721;DHT22;42950;52.134;5.578;2024-02-26T07:32:09;5.60;99.90
23721;DHT22;42950;52.134;5.578;2024-02-26T07:34:36;5.60;99.90
23721;DHT22;42950;52.134;5.578;2024-02-26T07:37:04;5.60;99.90
23721;DHT22;42950;52.134;5.578;2024-02-26T07:39:30;5.60;99.90
23721;DHT22;42950;52.134;5.578;2024-02-26T07:41:55;5.60;99.90
23721;DHT22;42950;52.134;5.578;2024-02-26T07:44:21;5.70;99.90
23721;DHT22;42950;52.134;5.578;2024-02-26T07:46:46;5.60;99.90
23721;DHT22;42950;52.134;5.578;2024-02-26T07:49:12;5.60;99.90
23721;DHT22;42950;52.134;5.578;2024-02-26T07:51:38;5.60;99.90
23721;DHT22;42950;52.134;5.578;2024-02-26T07:54:03;5.60;99.90
23721;DHT22;42950;52.134;5.578;2024-02-26T07:56:29;5.60;99.90
23721;DHT22;42950;52.134;5.578;2024-02-26T07:58:54;5.70;99.90
23721;DHT22;42950;52.134;5.578;2024-02-26T08:01:20;5.70;99.90
23721;DHT22;42950;52.134;5.578;2024-02-26T08:03:45;5.70;99.90
23721;DHT22;42950;52.134;5.578;2024-02-26T08:06:11;5.70;99.90
23721;DHT22;42950;52.134;5.578;2024-02-26T08:08:36;5.70;99.90
23721;DHT22;42950;52.134;5.578;2024-02-26T08:11:02;5.70;99.90
23721;DHT22;42950;52.134;5.578;2024-02-26T08:13:28;5.70;99.90
23721;DHT22;42950;52.134;5.578;2024-02-26T08:15:53;5.70;99.90
23721;DHT22;42950;52.134;5.578;2024-02-26T08:18:19;5.70;99.90
23721;DHT22;42950;52.134;5.578;2024-02-26T08:20:45;5.80;99.90
23721;DHT22;42950;52.134;5.578;2024-02-26T08:23:11;5.80;99.90
23721;DHT22;42950;52.134;5.578;2024-02-26T08:25:37;5.80;99.90
23721;DHT22;42950;52.134;5.578;2024-02-26T08:28:02;5.80;99.90
23721;DHT22;42950;52.134;5.578;2024-02-26T08:30:28;5.80;99.90
23721;DHT22;42950;52.134;5.578;2024-02-26T08:32:54;5.80;99.90
23721;DHT22;42950;52.134;5.578;2024-02-26T08:35:19;5.80;99.90
23721;DHT22;42950;52.134;5.578;2024-02-26T08:37:45;5.80;99.90
23721;DHT22;42950;52.134;5.578;2024-02-26T08:40:11;5.80;99.90
23721;DHT22;42950;52.134;5.578;2024-02-26T08:42:37;5.80;99.90
23721;DHT22;42950;52.134;5.578;2024-02-26T08:45:03;5.80;99.90
23721;DHT22;42950;52.134;5.578;2024-02-26T08:47:28;5.80;99.90
23721;DHT22;42950;52.134;5.578;2024-02-26T08:49:54;5.80;99.90
23721;DHT22;42950;52.134;5.578;2024-02-26T08:52:20;5.80;99.90
23721;DHT22;42950;52.134;5.578;2024-02-26T08:54:47;5.70;99.90
23721;DHT22;42950;52.134;5.578;2024-02-26T08:57:13;5.80;99.90
23721;DHT22;42950;52.134;5.578;2024-02-26T08:59:38;5.70;99.90
23721;DHT22;42950;52.134;5.578;2024-02-26T09:02:04;5.80;99.90
23721;DHT22;42950;52.134;5.578;2024-02-26T09:04:29;5.80;99.90
23721;DHT22;42950;52.134;5.578;2024-02-26T09:06:55;5.80;99.90
23721;DHT22;42950;52.134;5.578;2024-02-26T09:09:20;5.80;99.90
23721;DHT22;42950;52.134;5.578;2024-02-26T09:11:47;5.80;99.90
23721;DHT22;42950;52.134;5.578;2024-02-26T09:14:14;5.80;99.90
23721;DHT22;42950;52.134;5.578;2024-02-26T09:16:39;5.80;99.90
23721;DHT22;42950;52.134;5.578;2024-02-26T09:19:05;5.80;99.90
23721;DHT22;42950;52.134;5.578;2024-02-26T09:21:30;5.90;99.90
23721;DHT22;42950;52.134;5.578;2024-02-26T09:23:56;5.80;99.90
23721;DHT22;42950;52.134;5.578;2024-02-26T09:26:21;5.80;99.90
23721;DHT22;42950;52.134;5.578;2024-02-26T09:28:47;5.80;99.90
23721;DHT22;42950;52.134;5.578;2024-02-26T09:31:14;5.80;99.90
23721;DHT22;42950;52.134;5.578;2024-02-26T09:33:41;5.80;99.90
23721;DHT22;42950;52.134;5.578;2024-02-26T09:36:07;5.80;99.90
23721;DHT22;42950;52.134;5.578;2024-02-26T09:38:34;5.80;99.90
23721;DHT22;42950;52.134;5.578;2024-02-26T09:41:04;5.80;99.90
23721;DHT22;42950;52.134;5.578;2024-02-26T09:43:35;5.90;99.90
23721;DHT22;42950;52.134;5.578;2024-02-26T09:46:01;5.90;99.90
23721;DHT22;42950;52.134;5.578;2024-02-26T09:48:29;5.90;99.90
23721;DHT22;42950;52.134;5.578;2024-02-26T09:50:54;5.80;99.90
23721;DHT22;42950;52.134;5.578;2024-02-26T09:53:22;5.90;99.90
23721;DHT22;42950;52.134;5.578;2024-02-26T09:55:48;5.90;99.90
23721;DHT22;42950;52.134;5.578;2024-02-26T09:58:14;6.00;99.90
23721;DHT22;42950;52.134;5.578;2024-02-26T10:00:47;6.00;99.90
23721;DHT22;42950;52.134;5.578;2024-02-26T10:03:21;6.00;99.90
23721;DHT22;42950;52.134;5.578;2024-02-26T10:05:49;5.90;99.90
23721;DHT22;42950;52.134;5.578;2024-02-26T10:08:16;5.90;99.90
23721;DHT22;42950;52.134;5.578;2024-02-26T10:10:44;5.90;99.90
23721;DHT22;42950;52.134;5.578;2024-02-26T10:13:10;5.90;99.90
23721;DHT22;42950;52.134;5.578;2024-02-26T10:15:37;5.90;99.90
23721;DHT22;42950;52.134;5.578;2024-02-26T10:18:06;6.00;99.90
23721;DHT22;42950;52.134;5.578;2024-02-26T10:20:32;6.00;99.90
23721;DHT22;42950;52.134;5.578;2024-02-26T10:22:58;6.00;99.90
23721;DHT22;42950;52.134;5.578;2024-02-26T10:25:24;6.00;99.90
23721;DHT22;42950;52.134;5.578;2024-02-26T10:27:49;6.00;99.90
23721;DHT22;42950;52.134;5.578;2024-02-26T10:30:22;6.00;99.90
23721;DHT22;42950;52.134;5.578;2024-02-26T10:32:48;6.00;99.90
23721;DHT22;42950;52.134;5.578;2024-02-26T10:35:16;6.00;99.90
23721;DHT22;42950;52.134;5.578;2024-02-26T10:37:43;6.00;99.90
23721;DHT22;42950;52.134;5.578;2024-02-26T10:40:12;6.00;99.90
23721;DHT22;42950;52.134;5.578;2024-02-26T10:42:38;6.10;99.90
23721;DHT22;42950;52.134;5.578;2024-02-26T10:45:08;6.10;99.90
23721;DHT22;42950;52.134;5.578;2024-02-26T10:47:37;6.10;99.90
23721;DHT22;42950;52.134;5.578;2024-02-26T10:50:05;6.10;99.90
23721;DHT22;42950;52.134;5.578;2024-02-26T10:52:32;6.20;99.90
23721;DHT22;42950;52.134;5.578;2024-02-26T10:55:02;6.30;99.90
23721;DHT22;42950;52.134;5.578;2024-02-26T10:57:35;6.20;99.90
23721;DHT22;42950;52.134;5.578;2024-02-26T11:00:03;6.20;99.90
23721;DHT22;42950;52.134;5.578;2024-02-26T11:02:36;6.30;99.90
23721;DHT22;42950;52.134;5.578;2024-02-26T11:05:02;6.20;99.90
23721;DHT22;42950;52.134;5.578;2024-02-26T11:07:30;6.20;99.90
23721;DHT22;42950;52.134;5.578;2024-02-26T11:09:56;6.20;99.90
23721;DHT22;42950;52.134;5.578;2024-02-26T11:12:22;6.30;99.90
23721;DHT22;42950;52.134;5.578;2024-02-26T11:14:50;6.20;99.90
23721;DHT22;42950;52.134;5.578;2024-02-26T11:17:21;6.20;99.90
23721;DHT22;42950;52.134;5.578;2024-02-26T11:19:47;6.30;99.90
23721;DHT22;42950;52.134;5.578;2024-02-26T11:22:13;6.30;99.90
23721;DHT22;42950;52.134;5.578;2024-02-26T11:24:39;6.30;99.90
23721;DHT22;42950;52.134;5.578;2024-02-26T11:27:07;6.30;99.90
23721;DHT22;42950;52.134;5.578;2024-02-26T11:29:42;6.40;99.90
23721;DHT22;42950;52.134;5.578;2024-02-26T11:32:09;6.30;99.90
23721;DHT22;42950;52.134;5.578;2024-02-26T11:34:35;6.30;99.90
23721;DHT22;42950;52.134;5.578;2024-02-26T11:37:17;6.30;99.90
23721;DHT22;42950;52.134;5.578;2024-02-26T11:39:43;6.30;99.90
23721;DHT22;42950;52.134;5.578;2024-02-26T11:42:14;6.30;99.90
23721;DHT22;42950;52.134;5.578;2024-02-26T11:44:40;6.30;99.90
23721;DHT22;42950;52.134;5.578;2024-02-26T11:47:33;6.30;99.90
23721;DHT22;42950;52.134;5.578;2024-02-26T11:50:00;6.30;99.90
23721;DHT22;42950;52.134;5.578;2024-02-26T11:55:46;6.50;99.90
23721;DHT22;42950;52.134;5.578;2024-02-26T11:58:12;6.40;99.90
23721;DHT22;42950;52.134;5.578;2024-02-26T12:00:40;6.50;99.90
23721;DHT22;42950;52.134;5.578;2024-02-26T12:03:06;6.40;99.90
23721;DHT22;42950;52.134;5.578;2024-02-26T12:05:34;6.40;99.90
23721;DHT22;42950;52.134;5.578;2024-02-26T12:08:06;6.40;99.90
23721;DHT22;42950;52.134;5.578;2024-02-26T12:10:34;6.40;99.90
23721;DHT22;42950;52.134;5.578;2024-02-26T12:13:10;6.40;99.90
23721;DHT22;42950;52.134;5.578;2024-02-26T12:15:39;6.50;99.90
23721;DHT22;42950;52.134;5.578;2024-02-26T12:18:06;6.50;99.90
23721;DHT22;42950;52.134;5.578;2024-02-26T12:20:33;6.40;99.90
23721;DHT22;42950;52.134;5.578;2024-02-26T12:23:02;6.40;99.90
23721;DHT22;42950;52.134;5.578;2024-02-26T12:25:29;6.40;99.90
23721;DHT22;42950;52.134;5.578;2024-02-26T12:27:56;6.40;99.90
23721;DHT22;42950;52.134;5.578;2024-02-26T12:30:22;6.40;99.90
23721;DHT22;42950;52.134;5.578;2024-02-26T12:32:49;6.40;99.90
23721;DHT22;42950;52.134;5.578;2024-02-26T12:35:15;6.50;99.90
23721;DHT22;42950;52.134;5.578;2024-02-26T12:37:42;6.40;99.90
23721;DHT22;42950;52.134;5.578;2024-02-26T12:40:08;6.40;99.90
23721;DHT22;42950;52.134;5.578;2024-02-26T12:42:35;6.30;99.90
23721;DHT22;42950;52.134;5.578;2024-02-26T12:45:06;6.40;99.90
23721;DHT22;42950;52.134;5.578;2024-02-26T12:47:40;6.40;99.90
23721;DHT22;42950;52.134;5.578;2024-02-26T12:50:07;6.40;99.90
23721;DHT22;42950;52.134;5.578;2024-02-26T12:52:35;6.40;99.90
23721;DHT22;42950;52.134;5.578;2024-02-26T12:55:02;6.30;99.90
23721;DHT22;42950;52.134;5.578;2024-02-26T12:57:30;6.30;99.90
23721;DHT22;42950;52.134;5.578;2024-02-26T12:59:57;6.30;99.90
23721;DHT22;42950;52.134;5.578;2024-02-26T13:02:23;6.40;99.90
23721;DHT22;42950;52.134;5.578;2024-02-26T13:04:49;6.40;99.90
23721;DHT22;42950;52.134;5.578;2024-02-26T13:07:17;6.40;99.90
23721;DHT22;42950;52.134;5.578;2024-02-26T13:09:43;6.50;99.90
23721;DHT22;42950;52.134;5.578;2024-02-26T13:12:09;6.50;99.90
23721;DHT22;42950;52.134;5.578;2024-02-26T13:14:35;6.40;99.90
23721;DHT22;42950;52.134;5.578;2024-02-26T13:17:01;6.40;99.90
23721;DHT22;42950;52.134;5.578;2024-02-26T13:19:27;6.40;99.90
23721;DHT22;42950;52.134;5.578;2024-02-26T13:21:54;6.40;99.90
23721;DHT22;42950;52.134;5.578;2024-02-26T13:24:20;6.40;99.90
23721;DHT22;42950;52.134;5.578;2024-02-26T13:26:53;6.50;99.90
23721;DHT22;42950;52.134;5.578;2024-02-26T13:29:19;6.50;99.90
23721;DHT22;42950;52.134;5.578;2024-02-26T13:31:45;6.50;99.90
23721;DHT22;42950;52.134;5.578;2024-02-26T13:34:23;6.50;99.90
23721;DHT22;42950;52.134;5.578;2024-02-26T13:36:50;6.50;99.90
23721;DHT22;42950;52.134;5.578;2024-02-26T13:39:22;6.60;99.90
23721;DHT22;42950;52.134;5.578;2024-02-26T13:41:48;6.50;99.90
23721;DHT22;42950;52.134;5.578;2024-02-26T13:44:13;6.50;99.90
23721;DHT22;42950;52.134;5.578;2024-02-26T13:46:42;6.60;99.90
23721;DHT22;42950;52.134;5.578;2024-02-26T13:49:09;6.60;99.90
23721;DHT22;42950;52.134;5.578;2024-02-26T13:51:35;6.60;99.90
23721;DHT22;42950;52.134;5.578;2024-02-26T13:54:03;6.70;99.90
23721;DHT22;42950;52.134;5.578;2024-02-26T13:56:30;6.70;99.90
23721;DHT22;42950;52.134;5.578;2024-02-26T13:58:56;6.70;99.90
23721;DHT22;42950;52.134;5.578;2024-02-26T14:01:22;6.70;99.90
23721;DHT22;42950;52.134;5.578;2024-02-26T14:03:47;6.70;99.90
23721;DHT22;42950;52.134;5.578;2024-02-26T14:06:14;6.70;99.90
23721;DHT22;42950;52.134;5.578;2024-02-26T14:08:39;6.70;99.90
23721;DHT22;42950;52.134;5.578;2024-02-26T14:11:05;6.70;99.90
23721;DHT22;42950;52.134;5.578;2024-02-26T14:13:31;6.70;99.90
23721;DHT22;42950;52.134;5.578;2024-02-26T14:15:57;6.70;99.90
23721;DHT22;42950;52.134;5.578;2024-02-26T14:18:22;6.70;99.90
23721;DHT22;42950;52.134;5.578;2024-02-26T14:20:48;6.70;99.90
23721;DHT22;42950;52.134;5.578;2024-02-26T14:23:14;6.80;99.90
23721;DHT22;42950;52.134;5.578;2024-02-26T14:25:40;6.70;99.90
23721;DHT22;42950;52.134;5.578;2024-02-26T14:28:08;6.70;99.90
23721;DHT22;42950;52.134;5.578;2024-02-26T14:30:34;6.80;99.90
23721;DHT22;42950;52.134;5.578;2024-02-26T14:33:00;6.80;99.90
23721;DHT22;42950;52.134;5.578;2024-02-26T14:35:25;6.80;99.90
23721;DHT22;42950;52.134;5.578;2024-02-26T14:37:51;6.80;99.90
23721;DHT22;42950;52.134;5.578;2024-02-26T14:40:17;6.80;99.90
23721;DHT22;42950;52.134;5.578;2024-02-26T14:42:43;6.80;99.90
23721;DHT22;42950;52.134;5.578;2024-02-26T14:45:09;6.80;99.90
23721;DHT22;42950;52.134;5.578;2024-02-26T14:47:38;6.90;99.90
23721;DHT22;42950;52.134;5.578;2024-02-26T14:50:05;6.90;99.90
23721;DHT22;42950;52.134;5.578;2024-02-26T14:52:31;6.90;99.90
23721;DHT22;42950;52.134;5.578;2024-02-26T14:54:58;6.90;99.90
23721;DHT22;42950;52.134;5.578;2024-02-26T14:57:26;6.90;99.90
23721;DHT22;42950;52.134;5.578;2024-02-26T14:59:52;6.90;99.90
23721;DHT22;42950;52.134;5.578;2024-02-26T15:02:18;6.90;99.90
23721;DHT22;42950;52.134;5.578;2024-02-26T15:04:43;6.90;99.90
23721;DHT22;42950;52.134;5.578;2024-02-26T15:07:10;6.90;99.90
23721;DHT22;42950;52.134;5.578;2024-02-26T15:09:37;6.90;99.90
23721;DHT22;42950;52.134;5.578;2024-02-26T15:12:03;6.90;99.90
23721;DHT22;42950;52.134;5.578;2024-02-26T15:14:32;7.00;99.90
23721;DHT22;42950;52.134;5.578;2024-02-26T15:16:57;7.00;99.90
23721;DHT22;42950;52.134;5.578;2024-02-26T15:19:23;6.90;99.90
23721;DHT22;42950;52.134;5.578;2024-02-26T15:21:49;7.00;99.90
23721;DHT22;42950;52.134;5.578;2024-02-26T15:24:15;7.00;99.90
23721;DHT22;42950;52.134;5.578;2024-02-26T15:26:47;7.00;99.90
23721;DHT22;42950;52.134;5.578;2024-02-26T15:29:12;7.00;99.90
23721;DHT22;42950;52.134;5.578;2024-02-26T15:31:38;7.00;99.90
23721;DHT22;42950;52.134;5.578;2024-02-26T15:34:04;7.00;99.90
23721;DHT22;42950;52.134;5.578;2024-02-26T15:36:30;6.90;99.90
23721;DHT22;42950;52.134;5.578;2024-02-26T15:38:56;6.90;99.90
23721;DHT22;42950;52.134;5.578;2024-02-26T15:41:24;6.90;99.90
23721;DHT22;42950;52.134;5.578;2024-02-26T15:43:50;6.90;99.90